Time;durP1;ratioP1;P1;durP2;ratioP2;P2;SDS_P1;SDS_P2;PMS_P1;PMS_P2;Temp;Humidity;BMP_temperature;BMP_pressure;BME280_temperature;BME280_humidity;BME280_pressure;Samples;Min_cycle;Max_cycle;Signal;HPM_P1;HPM_P2
2021/03/08 00:00:15;;;;;;;18.73;13.13;;;3.20;99.90;;;;;;5073585;28;20051;-95
2021/03/08 00:02:45;;;;;;;17.73;13.02;;;3.20;99.90;;;;;;5056886;28;20056;-95
2021/03/08 00:05:17;;;;;;;21.63;13.25;;;3.20;99.90;;;;;;5084897;28;20043;-95
2021/03/08 00:07:45;;;;;;;17.25;13.60;;;3.20;99.90;;;;;;5063714;28;20051;-96
2021/03/08 00:10:27;;;;;;;20.35;13.65;;;3.20;99.90;;;;;;5039665;28;20409;-96
2021/03/08 00:13:14;;;;;;;;;;;;;;;;;;;;;
2021/03/08 00:15:49;;;;;;;21.23;13.15;;;3.10;99.90;;;;;;5071678;28;20109;-96
2021/03/08 00:18:17;;;;;;;17.35;12.57;;;3.10;99.90;;;;;;5047607;28;20040;-95
2021/03/08 00:20:49;;;;;;;16.20;13.30;;;3.10;99.90;;;;;;5065799;28;20040;-96
2021/03/08 00:23:17;;;;;;;17.05;13.32;;;3.10;99.90;;;;;;5070940;28;20048;-96
2021/03/08 00:25:46;;;;;;;18.27;13.18;;;3.00;99.90;;;;;;5055327;28;20049;-96
2021/03/08 00:28:12;;;;;;;18.17;13.45;;;3.00;99.90;;;;;;5066847;28;20040;-95
2021/03/08 00:30:41;;;;;;;16.35;12.75;;;3.00;99.90;;;;;;5064985;28;20044;-96
2021/03/08 00:33:09;;;;;;;15.93;12.65;;;3.00;99.90;;;;;;5073807;28;20043;-95
2021/03/08 00:35:37;;;;;;;;;;;3.00;99.90;;;;;;5050759;28;20060;-95
2021/03/08 00:38:06;;;;;;;15.95;13.20;;;3.00;99.90;;;;;;5072300;28;19927;-94
2021/03/08 00:40:35;;;;;;;17.08;13.38;;;3.00;99.90;;;;;;5063800;28;20054;-94
2021/03/08 00:43:02;;;;;;;18.40;12.25;;;2.90;99.90;;;;;;5079670;28;20043;-94
2021/03/08 00:45:28;;;;;;;14.38;12.52;;;2.90;99.90;;;;;;5056647;28;20052;-94
2021/03/08 00:47:55;;;;;;;15.02;12.63;;;2.90;99.90;;;;;;5073519;28;20043;-95
2021/03/08 00:50:25;;;;;;;15.02;12.30;;;2.90;99.90;;;;;;5074306;28;20131;-95
2021/03/08 00:52:53;;;;;;;19.55;13.05;;;2.90;99.90;;;;;;5090183;28;20079;-94
2021/03/08 00:55:20;;;;;;;18.67;13.35;;;2.90;99.90;;;;;;5070258;28;20048;-95
2021/03/08 00:57:47;;;;;;;15.25;12.50;;;2.90;99.90;;;;;;5070054;28;20052;-94
2021/03/08 01:00:17;;;;;;;15.65;12.50;;;2.90;99.90;;;;;;5071621;28;20649;-95
2021/03/08 01:02:44;;;;;;;14.95;11.55;;;2.90;99.90;;;;;;5083039;28;20048;-95
2021/03/08 01:05:15;;;;;;;16.98;12.88;;;2.90;99.90;;;;;;5055414;28;20055;-95
2021/03/08 01:07:42;;;;;;;16.65;12.50;;;2.90;99.90;;;;;;5069024;28;20446;-95
2021/03/08 01:10:12;;;;;;;15.77;12.80;;;2.80;99.90;;;;;;5063742;28;20100;-95
2021/03/08 01:12:39;;;;;;;17.52;12.70;;;2.90;99.90;;;;;;5067324;28;20059;-95
2021/03/08 01:15:07;;;;;;;17.80;12.95;;;2.80;99.90;;;;;;5071675;28;20045;-95
2021/03/08 01:17:35;;;;;;;20.53;12.70;;;2.80;99.90;;;;;;5064044;28;20097;-95
2021/03/08 01:20:13;;;;;;;22.90;14.38;;;2.70;99.90;;;;;;5069762;28;20464;-95
2021/03/08 01:22:40;;;;;;;15.20;12.50;;;2.80;99.90;;;;;;5067631;28;20059;-95
2021/03/08 01:25:15;;;;;;;18.17;12.82;;;2.70;99.90;;;;;;5065833;28;20644;-93
2021/03/08 01:27:42;;;;;;;18.20;12.82;;;2.70;99.90;;;;;;5060242;28;20052;-94
2021/03/08 01:30:16;;;;;;;14.40;12.85;;;2.70;99.90;;;;;;5056309;28;20048;-94
2021/03/08 01:32:43;;;;;;;17.83;13.00;;;2.70;99.90;;;;;;5070806;28;20056;-95
2021/03/08 01:35:10;;;;;;;19.08;12.98;;;2.70;99.90;;;;;;5070542;28;20054;-95
2021/03/08 01:37:38;;;;;;;17.38;13.00;;;2.70;99.90;;;;;;5064807;28;20674;-95
2021/03/08 01:40:07;;;;;;;20.67;12.57;;;2.60;99.90;;;;;;5064556;28;20422;-95
2021/03/08 01:42:35;;;;;;;19.35;12.45;;;2.70;99.90;;;;;;5059193;28;20049;-95
2021/03/08 01:45:03;;;;;;;15.73;12.32;;;2.60;99.90;;;;;;5062213;28;20391;-95
2021/03/08 01:47:30;;;;;;;16.55;12.82;;;2.60;99.90;;;;;;5080886;28;20127;-95
2021/03/08 01:50:06;;;;;;;15.80;11.88;;;2.60;99.90;;;;;;5072834;28;20039;-94
2021/03/08 01:52:33;;;;;;;17.10;13.25;;;2.60;99.90;;;;;;5059064;28;20055;-95
2021/03/08 01:55:00;;;;;;;14.50;12.07;;;2.60;99.90;;;;;;5065894;28;20041;-94
2021/03/08 01:57:27;;;;;;;16.70;11.98;;;2.60;99.90;;;;;;5049287;28;20394;-95
2021/03/08 01:59:53;;;;;;;16.25;13.23;;;2.60;99.90;;;;;;5071513;28;20056;-95
2021/03/08 02:02:22;;;;;;;14.63;11.20;;;2.60;99.90;;;;;;5066595;28;20064;-96
2021/03/08 02:04:51;;;;;;;;;;;2.50;99.90;;;;;;5070733;28;20498;-96
2021/03/08 02:07:18;;;;;;;;;;;2.50;99.90;;;;;;5068789;28;19920;-95
2021/03/08 02:09:44;;;;;;;17.30;11.98;;;2.50;99.90;;;;;;5069664;28;20173;-95
2021/03/08 02:12:20;;;;;;;17.08;12.20;;;2.50;99.90;;;;;;5070147;28;20062;-95
2021/03/08 02:15:02;;;;;;;14.82;11.20;;;2.50;99.90;;;;;;5069221;28;20061;-96
2021/03/08 02:17:49;;;;;;;20.73;12.32;;;2.50;99.90;;;;;;5077228;28;20105;-96
2021/03/08 02:20:37;;;;;;;15.15;12.73;;;2.50;99.90;;;;;;5065439;28;20053;-95
2021/03/08 02:23:17;;;;;;;18.08;12.90;;;2.50;99.90;;;;;;5066797;28;20063;-94
2021/03/08 02:26:01;;;;;;;16.70;12.68;;;2.50;99.90;;;;;;5060096;28;20036;-96
2021/03/08 02:28:45;;;;;;;16.25;11.77;;;2.50;99.90;;;;;;5068966;28;20046;-94
2021/03/08 02:31:12;;;;;;;17.73;12.02;;;2.40;99.90;;;;;;5067850;28;20505;-94
2021/03/08 02:33:44;;;;;;;17.25;12.00;;;2.40;99.90;;;;;;5070027;28;20048;-95
2021/03/08 02:36:12;;;;;;;17.30;12.40;;;2.50;99.90;;;;;;5069100;28;20045;-95
2021/03/08 02:38:46;;;;;;;14.48;11.93;;;2.40;99.90;;;;;;5069456;28;20049;-96
2021/03/08 02:41:20;;;;;;;20.02;12.45;;;2.40;99.90;;;;;;5068580;28;20501;-96
2021/03/08 02:43:52;;;;;;;19.75;12.20;;;2.40;99.90;;;;;;5065205;28;20098;-95
2021/03/08 02:46:28;;;;;;;16.33;11.90;;;2.40;99.90;;;;;;5068201;28;20044;-95
2021/03/08 02:49:00;;;;;;;14.95;12.82;;;2.40;99.90;;;;;;5071159;28;20501;-95
2021/03/08 02:51:30;;;;;;;17.38;12.77;;;2.40;99.90;;;;;;5073966;28;20098;-95
2021/03/08 02:54:01;;;;;;;14.57;12.40;;;2.40;99.90;;;;;;5072392;28;20435;-95
2021/03/08 02:56:35;;;;;;;19.20;12.18;;;2.30;99.90;;;;;;5073141;28;20049;-95
2021/03/08 02:59:05;;;;;;;15.35;11.82;;;2.40;99.90;;;;;;5072003;28;20583;-95
2021/03/08 03:01:34;;;;;;;15.20;12.15;;;2.30;99.90;;;;;;5071309;28;20040;-94
2021/03/08 03:04:03;;;;;;;19.40;12.02;;;2.30;99.90;;;;;;5067448;28;20040;-94
2021/03/08 03:06:36;;;;;;;16.58;12.32;;;2.30;99.90;;;;;;5072750;28;20179;-94
2021/03/08 03:09:06;;;;;;;15.88;12.68;;;2.30;99.90;;;;;;5073628;28;20044;-95
2021/03/08 03:11:35;;;;;;;17.50;12.13;;;2.30;99.90;;;;;;5071819;28;20469;-94
2021/03/08 03:14:03;;;;;;;16.02;11.85;;;2.30;99.90;;;;;;5052688;28;20064;-95
2021/03/08 03:16:31;;;;;;;18.48;12.65;;;2.30;99.90;;;;;;5058317;28;20079;-94
2021/03/08 03:19:04;;;;;;;16.02;11.70;;;2.30;99.90;;;;;;5053435;28;20075;-94
2021/03/08 03:21:33;;;;;;;17.40;12.60;;;2.30;99.90;;;;;;5061345;28;20052;-94
2021/03/08 03:24:01;;;;;;;14.88;11.55;;;2.30;99.90;;;;;;5071050;28;20141;-94
2021/03/08 03:26:31;;;;;;;19.23;12.15;;;2.20;99.90;;;;;;5062225;28;20046;-95
2021/03/08 03:28:58;;;;;;;16.02;11.70;;;2.20;99.90;;;;;;5068744;28;20048;-94
2021/03/08 03:31:32;;;;;;;16.90;12.10;;;2.20;99.90;;;;;;5064292;28;20056;-94
2021/03/08 03:34:00;;;;;;;15.30;11.98;;;2.20;99.90;;;;;;5068195;28;20041;-95
2021/03/08 03:36:32;;;;;;;15.30;11.48;;;2.20;99.90;;;;;;5075379;28;20041;-95
2021/03/08 03:38:59;;;;;;;16.70;11.35;;;2.20;99.90;;;;;;5074859;28;20048;-95
2021/03/08 03:41:27;;;;;;;19.05;12.63;;;2.10;99.90;;;;;;5073401;28;20047;-95
2021/03/08 03:43:54;;;;;;;18.70;13.07;;;2.10;99.90;;;;;;5078771;28;20163;-95
2021/03/08 03:46:21;;;;;;;17.40;12.18;;;2.10;99.90;;;;;;5073093;28;20047;-95
2021/03/08 03:48:48;;;;;;;19.88;12.52;;;2.10;99.90;;;;;;5072898;28;20048;-94
2021/03/08 03:51:15;;;;;;;15.45;11.80;;;2.10;99.90;;;;;;5071712;28;20090;-95
2021/03/08 03:53:42;;;;;;;14.18;11.60;;;2.00;99.90;;;;;;5069329;28;20474;-95
2021/03/08 03:56:12;;;;;;;15.13;11.93;;;2.00;99.90;;;;;;5071705;28;20063;-94
2021/03/08 03:58:41;;;;;;;;;;;2.00;99.90;;;;;;5071404;28;20049;-95
2021/03/08 04:01:16;;;;;;;17.55;12.85;;;2.00;99.90;;;;;;5071288;28;19927;-95
2021/03/08 04:04:01;;;;;;;14.25;11.80;;;2.00;99.90;;;;;;5068300;28;20124;-95
2021/03/08 04:06:36;;;;;;;17.95;12.05;;;2.00;99.90;;;;;;5071151;28;20044;-95
2021/03/08 04:09:04;;;;;;;15.63;12.55;;;2.00;99.90;;;;;;5062137;28;20041;-94
2021/03/08 04:11:33;;;;;;;17.23;12.25;;;2.00;99.90;;;;;;5067765;28;20052;-95
2021/03/08 04:14:02;;;;;;;16.02;11.95;;;2.00;99.90;;;;;;5067708;28;20051;-94
2021/03/08 04:16:31;;;;;;;16.45;12.85;;;2.00;99.90;;;;;;5064006;28;20044;-94
2021/03/08 04:19:00;;;;;;;14.98;12.57;;;2.00;99.90;;;;;;5065974;28;20051;-94
2021/03/08 04:21:27;;;;;;;15.85;12.45;;;2.00;99.90;;;;;;5070966;28;20044;-94
2021/03/08 04:23:56;;;;;;;20.30;12.65;;;2.00;99.90;;;;;;5071415;28;20054;-93
2021/03/08 04:26:22;;;;;;;13.93;12.40;;;2.00;99.90;;;;;;5071293;28;20032;-93
2021/03/08 04:28:49;;;;;;;16.52;13.38;;;2.00;99.90;;;;;;5073601;28;20040;-93
2021/03/08 04:31:17;;;;;;;19.98;12.63;;;2.00;99.90;;;;;;5073584;28;20047;-93
2021/03/08 04:33:48;;;;;;;19.08;12.68;;;1.90;99.90;;;;;;5071487;28;20049;-94
2021/03/08 04:36:16;;;;;;;18.52;12.75;;;1.90;99.90;;;;;;5071079;28;20056;-92
2021/03/08 04:38:44;;;;;;;17.75;12.65;;;1.90;99.90;;;;;;5071559;28;20044;-94
2021/03/08 04:41:11;;;;;;;17.13;12.55;;;1.90;99.90;;;;;;5072162;28;20041;-94
2021/03/08 04:43:38;;;;;;;17.55;12.65;;;1.90;99.90;;;;;;5072433;28;20045;-93
2021/03/08 04:46:06;;;;;;;16.90;11.98;;;1.90;99.90;;;;;;5071882;28;20090;-94
2021/03/08 04:48:35;;;;;;;20.05;12.13;;;1.80;99.90;;;;;;5072230;28;20041;-93
2021/03/08 04:51:06;;;;;;;17.15;11.95;;;1.80;99.90;;;;;;5072538;28;20071;-93
2021/03/08 04:53:35;;;;;;;18.05;13.25;;;1.80;99.90;;;;;;5071513;28;20060;-94
2021/03/08 04:56:03;;;;;;;14.60;11.90;;;1.80;99.90;;;;;;5070543;28;20041;-94
2021/03/08 04:58:33;;;;;;;19.08;12.60;;;1.80;99.90;;;;;;5069510;28;20040;-94
2021/03/08 05:01:03;;;;;;;15.20;12.35;;;1.80;99.90;;;;;;5072263;28;20047;-94
2021/03/08 05:03:34;;;;;;;15.65;11.75;;;1.80;99.90;;;;;;5048458;28;20114;-95
2021/03/08 05:06:03;;;;;;;16.10;12.20;;;1.80;99.90;;;;;;5040640;28;20057;-95
2021/03/08 05:08:30;;;;;;;21.08;12.32;;;1.80;99.90;;;;;;5043018;28;20051;-94
2021/03/08 05:10:59;;;;;;;15.98;12.40;;;1.80;99.90;;;;;;5050225;28;20045;-94
2021/03/08 05:13:30;;;;;;;20.77;12.57;;;1.80;99.90;;;;;;5049570;28;20470;-94
2021/03/08 05:16:01;;;;;;;20.30;12.38;;;1.70;99.90;;;;;;5050691;28;20497;-94
2021/03/08 05:18:30;;;;;;;14.02;11.32;;;1.70;99.90;;;;;;5058318;28;20048;-94
2021/03/08 05:20:59;;;;;;;15.38;11.38;;;1.70;99.90;;;;;;5058178;28;20052;-94
2021/03/08 05:23:26;;;;;;;13.77;11.75;;;1.70;99.90;;;;;;5051483;28;20053;-95
2021/03/08 05:25:54;;;;;;;15.23;11.75;;;1.70;99.90;;;;;;5056795;28;20045;-94
2021/03/08 05:28:21;;;;;;;25.13;12.23;;;1.70;99.90;;;;;;5054905;28;20043;-94
2021/03/08 05:30:52;;;;;;;13.52;11.93;;;1.70;99.90;;;;;;5048915;28;20136;-94
2021/03/08 05:33:25;;;;;;;13.60;11.55;;;1.70;99.90;;;;;;5034969;28;20048;-95
2021/03/08 05:35:58;;;;;;;14.77;11.52;;;1.70;99.90;;;;;;5051987;28;20487;-94
2021/03/08 05:38:31;;;;;;;17.52;12.48;;;1.70;99.90;;;;;;5035277;28;20510;-95
2021/03/08 05:41:23;;;;;;;18.85;11.88;;;1.70;99.90;;;;;;5056695;28;20041;-94
2021/03/08 05:43:55;;;;;;;21.55;14.40;;;1.60;99.90;;;;;;5049798;28;20045;-95
2021/03/08 05:46:37;;;;;;;17.83;10.77;;;1.60;99.90;;;;;;5050233;28;20041;-94
2021/03/08 05:49:48;;;;;;;19.25;11.68;;;1.60;99.90;;;;;;5047605;28;20049;-95
2021/03/08 05:52:43;;;;;;;16.65;11.10;;;1.60;99.90;;;;;;5011635;28;20557;-95
2021/03/08 05:55:10;;;;;;;16.90;11.20;;;1.60;99.90;;;;;;5016897;28;20053;-94
2021/03/08 05:58:06;;;;;;;18.27;12.45;;;1.60;99.90;;;;;;5022692;28;20049;-94
2021/03/08 06:01:01;;;;;;;13.80;11.85;;;1.60;99.90;;;;;;5013286;28;20049;-96
2021/03/08 06:04:05;;;;;;;22.65;13.77;;;1.60;99.90;;;;;;5032645;28;20053;-95
2021/03/08 06:07:06;;;;;;;16.45;12.13;;;1.60;99.90;;;;;;5022191;28;20117;-96
2021/03/08 06:09:55;;;;;;;16.60;11.73;;;1.60;99.90;;;;;;5035473;28;20053;-95
2021/03/08 06:12:27;;;;;;;18.55;12.77;;;1.60;99.90;;;;;;5041522;28;20052;-95
2021/03/08 06:14:58;;;;;;;15.73;11.75;;;1.60;99.90;;;;;;5033261;28;20048;-95
2021/03/08 06:17:25;;;;;;;15.48;12.10;;;1.60;99.90;;;;;;5036997;28;20080;-85
2021/03/08 06:19:54;;;;;;;23.02;14.23;;;1.60;99.90;;;;;;5027513;28;20120;-95
2021/03/08 06:22:21;;;;;;;15.45;11.18;;;1.60;99.90;;;;;;5043439;28;20614;-95
2021/03/08 06:24:49;;;;;;;14.90;12.25;;;1.60;99.90;;;;;;5046966;28;20045;-94
2021/03/08 06:27:16;;;;;;;22.35;15.10;;;1.60;99.90;;;;;;5041704;28;20152;-94
2021/03/08 06:29:44;;;;;;;17.42;10.77;;;1.60;99.90;;;;;;5054148;28;20053;-93
2021/03/08 06:32:12;;;;;;;13.93;11.18;;;1.60;99.90;;;;;;5049324;28;20041;-94
2021/03/08 06:34:40;;;;;;;15.60;11.60;;;1.60;99.90;;;;;;5052957;28;20045;-94
2021/03/08 06:37:09;;;;;;;13.35;10.88;;;1.60;99.90;;;;;;5049206;28;20202;-94
2021/03/08 06:39:37;;;;;;;16.75;11.48;;;1.60;99.90;;;;;;5061161;28;20363;-94
2021/03/08 06:42:07;;;;;;;15.30;11.25;;;1.60;99.90;;;;;;5054615;28;20368;-96
2021/03/08 06:44:38;;;;;;;17.65;12.02;;;1.70;99.90;;;;;;5045100;28;20055;-96
2021/03/08 06:47:09;;;;;;;16.48;12.27;;;1.70;99.90;;;;;;5043912;28;20055;-96
2021/03/08 06:57:14;;;;;;;;;;;;;;;;;;;;;
2021/03/08 06:59:59;;;;;;;15.48;11.27;;;1.80;99.90;;;;;;4747533;29;20070;-96
2021/03/08 07:02:39;;;;;;;20.25;11.77;;;1.80;99.90;;;;;;4848557;29;20451;-95
2021/03/08 07:05:29;;;;;;;14.02;10.98;;;1.80;99.90;;;;;;4848161;29;20197;-96
2021/03/08 07:21:51;;;;;;;13.65;11.10;;;1.90;99.90;;;;;;6002488;22;1385819;-95
2021/03/08 07:24:55;;;;;;;13.75;11.23;;;2.00;99.90;;;;;;6060514;23;20354;-95
2021/03/08 07:27:41;;;;;;;17.05;10.95;;;2.00;99.90;;;;;;6013584;23;20022;-93
2021/03/08 07:30:09;;;;;;;14.50;10.95;;;2.10;99.90;;;;;;6088803;23;20019;-93
2021/03/08 07:33:03;;;;;;;13.65;10.80;;;2.10;99.90;;;;;;6070566;23;20090;-94
2021/03/08 07:35:46;;;;;;;22.55;10.90;;;2.10;99.90;;;;;;6062060;23;20250;-92
2021/03/08 07:38:28;;;;;;;15.70;10.98;;;2.20;99.90;;;;;;6070908;23;20080;-91
2021/03/08 07:41:24;;;;;;;17.73;11.05;;;2.30;99.90;;;;;;6080718;23;20049;-93
2021/03/08 07:44:04;;;;;;;14.30;11.07;;;2.40;99.90;;;;;;6089087;23;20017;-92
2021/03/08 07:46:33;;;;;;;12.77;10.98;;;2.40;99.90;;;;;;6073474;23;20026;-91
2021/03/08 07:49:03;;;;;;;16.35;10.98;;;2.50;99.90;;;;;;6070639;23;20029;-91
2021/03/08 07:51:31;;;;;;;14.13;10.48;;;2.50;99.90;;;;;;6070598;23;20088;-92
2021/03/08 07:54:00;;;;;;;14.52;11.45;;;2.60;99.90;;;;;;6070192;23;20019;-91
2021/03/08 07:56:27;;;;;;;18.77;11.13;;;2.70;99.90;;;;;;6069115;23;20022;-91
2021/03/08 07:58:54;;;;;;;12.05;10.82;;;2.70;99.90;;;;;;6069792;23;20019;-91
2021/03/08 08:01:22;;;;;;;14.23;10.70;;;2.80;99.90;;;;;;6068861;23;20023;-91
2021/03/08 08:03:49;;;;;;;12.57;10.23;;;2.90;99.90;;;;;;6069173;23;20033;-92
2021/03/08 08:06:21;;;;;;;17.50;10.65;;;3.00;99.90;;;;;;6060498;23;20502;-92
2021/03/08 08:08:55;;;;;;;13.68;9.88;;;3.10;99.90;;;;;;6069446;23;20043;-92
2021/03/08 08:11:31;;;;;;;15.18;10.55;;;3.10;99.90;;;;;;6067965;23;20209;-96
2021/03/08 08:14:03;;;;;;;14.45;10.43;;;3.20;99.90;;;;;;6069922;23;20086;-92
2021/03/08 08:16:31;;;;;;;21.35;11.25;;;3.30;99.90;;;;;;6068104;23;20114;-93
2021/03/08 08:19:04;;;;;;;11.35;10.25;;;3.40;99.90;;;;;;6065075;23;20014;-89
2021/03/08 08:21:39;;;;;;;12.60;10.13;;;3.50;99.90;;;;;;6085913;23;20018;-89
2021/03/08 08:24:09;;;;;;;19.33;10.40;;;3.50;99.90;;;;;;6089536;23;20033;-89
2021/03/08 08:26:36;;;;;;;11.63;9.82;;;3.60;99.90;;;;;;6090379;23;20022;-90
2021/03/08 08:29:03;;;;;;;13.88;9.88;;;3.70;99.90;;;;;;6091572;23;20488;-90
2021/03/08 08:31:56;;;;;;;13.82;10.60;;;3.80;99.90;;;;;;6091241;23;20026;-90
2021/03/08 08:34:30;;;;;;;13.50;10.07;;;3.90;99.90;;;;;;6089517;23;20090;-92
2021/03/08 08:37:13;;;;;;;13.88;9.40;;;4.00;99.90;;;;;;6090326;23;20469;-93
2021/03/08 08:39:44;;;;;;;12.10;9.98;;;4.10;99.90;;;;;;6090456;23;20023;-92
2021/03/08 08:42:37;;;;;;;14.05;10.15;;;4.10;99.90;;;;;;6090932;23;20038;-94
2021/03/08 08:45:26;;;;;;;14.00;10.25;;;4.20;99.90;;;;;;6088224;23;20022;-92
2021/03/08 08:48:06;;;;;;;12.93;9.18;;;4.30;99.90;;;;;;6092671;23;20018;-93
2021/03/08 08:50:53;;;;;;;11.77;9.57;;;4.40;99.90;;;;;;6094721;23;20033;-93
2021/03/08 08:53:35;;;;;;;11.55;9.32;;;4.50;99.90;;;;;;6095262;23;20022;-93
2021/03/08 08:56:04;;;;;;;12.38;9.98;;;4.50;99.90;;;;;;6101148;23;20015;-92
2021/03/08 08:58:40;;;;;;;12.07;10.15;;;4.60;99.90;;;;;;6106636;23;20037;-93
2021/03/08 09:01:10;;;;;;;11.90;10.55;;;4.70;99.90;;;;;;6104311;23;20022;-92
2021/03/08 09:03:59;;;;;;;13.05;10.07;;;4.80;99.90;;;;;;6094565;23;20018;-93
2021/03/08 09:06:59;;;;;;;10.75;9.73;;;4.90;99.90;;;;;;6090389;23;20089;-92
2021/03/08 09:09:32;;;;;;;13.65;9.43;;;5.00;99.90;;;;;;6089535;23;20074;-92
2021/03/08 09:12:10;;;;;;;12.52;9.70;;;5.10;99.90;;;;;;6091779;23;20072;-93
2021/03/08 09:14:49;;;;;;;12.32;9.32;;;5.30;99.90;;;;;;6092079;23;20435;-92
2021/03/08 09:17:44;;;;;;;11.10;9.73;;;5.30;99.90;;;;;;6089409;23;20018;-94
2021/03/08 09:20:14;;;;;;;13.95;10.13;;;5.50;99.90;;;;;;6090378;23;20030;-92
2021/03/08 09:22:50;;;;;;;13.10;10.07;;;5.60;99.90;;;;;;6090593;23;20022;-92
2021/03/08 09:25:24;;;;;;;12.23;9.85;;;5.60;99.90;;;;;;6091054;23;20050;-92
2021/03/08 09:28:01;;;;;;;11.27;9.85;;;5.60;99.90;;;;;;6091605;23;20754;-92
2021/03/08 09:30:40;;;;;;;12.00;9.63;;;5.70;99.90;;;;;;6089782;23;20019;-92
2021/03/08 09:33:11;;;;;;;;;;;5.70;99.90;;;;;;6091545;23;20014;-93
2021/03/08 09:35:43;;;;;;;14.95;9.60;;;5.80;99.90;;;;;;6093125;23;19917;-91
2021/03/08 09:38:12;;;;;;;11.45;9.15;;;5.90;99.90;;;;;;6089236;23;20014;-92
2021/03/08 09:40:45;;;;;;;11.73;8.90;;;6.00;99.90;;;;;;6092966;23;20014;-92
2021/03/08 09:43:26;;;;;;;10.80;9.70;;;6.10;99.90;;;;;;6093606;23;20454;-92
2021/03/08 09:46:16;;;;;;;11.07;9.35;;;6.20;99.90;;;;;;6091298;23;20442;-93
2021/03/08 09:48:52;;;;;;;15.27;10.27;;;6.30;99.90;;;;;;6090892;23;20037;-93
2021/03/08 09:51:20;;;;;;;13.07;10.50;;;6.50;99.90;;;;;;6089316;23;20023;-94
2021/03/08 09:53:52;;;;;;;12.75;9.05;;;6.50;99.90;;;;;;6091929;23;20451;-93
2021/03/08 09:56:23;;;;;;;13.18;9.63;;;6.60;99.90;;;;;;6091413;23;20018;-93
2021/03/08 09:59:08;;;;;;;11.63;9.55;;;6.70;99.90;;;;;;6090623;23;20311;-93
2021/03/08 10:01:36;;;;;;;11.10;8.88;;;6.80;99.90;;;;;;6089825;23;20022;-93
2021/03/08 10:04:05;;;;;;;13.05;9.55;;;6.70;99.90;;;;;;6088724;23;20025;-94
2021/03/08 10:06:45;;;;;;;12.68;9.38;;;6.80;99.90;;;;;;6092493;23;20322;-93
2021/03/08 10:09:21;;;;;;;10.73;9.70;;;6.70;99.90;;;;;;6090475;23;20030;-93
2021/03/08 10:11:48;;;;;;;11.38;9.55;;;6.80;99.90;;;;;;6092179;23;20093;-93
2021/03/08 10:14:26;;;;;;;10.77;9.70;;;6.80;99.90;;;;;;6097361;23;20023;-94
2021/03/08 10:17:25;;;;;;;13.20;10.02;;;7.00;99.90;;;;;;6108068;23;20026;-93
2021/03/08 10:19:59;;;;;;;13.27;9.63;;;7.10;99.90;;;;;;6015685;23;20015;-92
2021/03/08 10:22:40;;;;;;;10.85;8.98;;;7.10;99.90;;;;;;6010599;23;20023;-93
2021/03/08 10:25:19;;;;;;;14.38;9.82;;;7.00;99.90;;;;;;6008752;23;20158;-93
2021/03/08 10:27:45;;;;;;;10.15;9.15;;;6.90;99.90;;;;;;6033150;23;20331;-93
2021/03/08 10:30:15;;;;;;;13.48;9.02;;;7.00;99.90;;;;;;6008714;23;20482;-92
2021/03/08 10:32:43;;;;;;;11.00;9.10;;;7.00;99.90;;;;;;6010880;23;20027;-93
2021/03/08 10:35:11;;;;;;;14.68;9.10;;;7.10;99.90;;;;;;6011194;23;20027;-93
2021/03/08 10:37:40;;;;;;;9.43;8.43;;;7.20;99.90;;;;;;6010501;23;20478;-93
2021/03/08 10:40:08;;;;;;;12.82;8.70;;;7.20;99.90;;;;;;6008727;23;20421;-93
2021/03/08 10:42:40;;;;;;;9.23;8.15;;;7.30;99.90;;;;;;6009633;23;20015;-94
2021/03/08 10:45:10;;;;;;;11.55;8.45;;;7.30;99.90;;;;;;6010207;23;20089;-94
2021/03/08 10:47:37;;;;;;;10.90;8.32;;;7.20;99.90;;;;;;6008722;23;20022;-93
2021/03/08 10:50:05;;;;;;;10.30;8.82;;;7.20;99.90;;;;;;6009218;23;20058;-93
2021/03/08 10:52:31;;;;;;;9.20;7.50;;;7.20;99.90;;;;;;6009060;23;20027;-93
2021/03/08 10:54:58;;;;;;;11.98;8.75;;;7.20;99.90;;;;;;6031495;23;20019;-96
2021/03/08 10:57:27;;;;;;;10.00;8.40;;;7.20;99.90;;;;;;6090362;23;20026;-93
2021/03/08 10:59:57;;;;;;;13.95;9.27;;;7.40;99.90;;;;;;6091957;23;20029;-93
2021/03/08 11:02:24;;;;;;;9.73;8.50;;;7.50;99.90;;;;;;6090928;23;20065;-94
2021/03/08 11:05:12;;;;;;;10.00;7.95;;;7.70;99.90;;;;;;6092530;23;20017;-93
2021/03/08 11:07:39;;;;;;;9.40;8.07;;;7.80;99.40;;;;;;6088111;23;20097;-93
2021/03/08 11:10:07;;;;;;;9.88;8.57;;;7.80;99.70;;;;;;6089979;23;20370;-94
2021/03/08 11:12:34;;;;;;;10.60;8.98;;;7.90;99.30;;;;;;6089431;23;20085;-94
2021/03/08 11:15:02;;;;;;;9.48;8.38;;;7.90;99.40;;;;;;6091085;23;20019;-94
2021/03/08 11:17:40;;;;;;;10.30;8.27;;;7.80;97.70;;;;;;6090817;23;20022;-94
2021/03/08 11:20:22;;;;;;;12.73;9.25;;;7.80;98.50;;;;;;6089053;23;20034;-93
2021/03/08 11:23:08;;;;;;;11.07;9.68;;;7.80;98.60;;;;;;6084642;23;20464;-93
2021/03/08 11:25:35;;;;;;;11.15;8.65;;;7.70;98.80;;;;;;6085395;23;20014;-93
2021/03/08 11:28:06;;;;;;;27.55;10.20;;;7.70;98.60;;;;;;6091136;23;20077;-93
2021/03/08 11:30:34;;;;;;;11.48;8.93;;;7.70;98.70;;;;;;6090600;23;20023;-93
2021/03/08 11:33:04;;;;;;;12.05;8.60;;;7.60;98.90;;;;;;6098304;23;20018;-95
2021/03/08 11:35:34;;;;;;;10.32;9.15;;;7.60;98.70;;;;;;6099597;23;20030;-95
2021/03/08 11:38:10;;;;;;;9.82;8.60;;;7.60;98.80;;;;;;6089721;23;20301;-93
2021/03/08 11:40:43;;;;;;;12.05;9.07;;;7.60;98.50;;;;;;6086801;23;20086;-95
2021/03/08 11:43:24;;;;;;;10.15;9.13;;;7.60;98.50;;;;;;6058903;23;20469;-95
2021/03/08 11:46:08;;;;;;;11.98;8.88;;;7.60;98.20;;;;;;6071849;23;20015;-95
2021/03/08 11:48:43;;;;;;;10.88;8.65;;;7.70;98.30;;;;;;6032068;23;20075;-95
2021/03/08 11:51:10;;;;;;;10.20;9.05;;;7.70;98.40;;;;;;6080189;23;20089;-95
2021/03/08 11:53:37;;;;;;;8.93;8.02;;;7.80;98.60;;;;;;6084033;23;20246;-94
2021/03/08 11:56:04;;;;;;;11.13;8.95;;;7.90;98.40;;;;;;6080802;23;20022;-95
2021/03/08 11:58:33;;;;;;;9.82;8.48;;;8.10;98.20;;;;;;6085191;23;20097;-95
2021/03/08 12:01:02;;;;;;;10.20;8.40;;;8.20;97.50;;;;;;6085396;23;20015;-95
2021/03/08 12:03:30;;;;;;;8.88;7.97;;;8.30;97.70;;;;;;6087623;23;20026;-94
2021/03/08 12:06:01;;;;;;;9.60;8.52;;;8.50;97.90;;;;;;6088812;23;20022;-96
2021/03/08 12:08:29;;;;;;;9.32;8.30;;;8.50;97.50;;;;;;6074081;23;20026;-95
2021/03/08 12:11:14;;;;;;;10.75;8.23;;;8.30;96.90;;;;;;6066695;23;20022;-96
2021/03/08 12:13:51;;;;;;;9.65;8.13;;;8.20;97.20;;;;;;6069869;23;20391;-96
2021/03/08 12:16:28;;;;;;;13.57;7.90;;;8.10;97.10;;;;;;6080729;23;20025;-95
2021/03/08 12:18:56;;;;;;;9.00;7.97;;;8.00;97.40;;;;;;6091471;23;20034;-95
2021/03/08 12:21:24;;;;;;;9.20;8.23;;;8.00;97.20;;;;;;6091038;23;20449;-96
2021/03/08 12:23:52;;;;;;;9.23;8.30;;;8.10;97.30;;;;;;6091354;23;20018;-92
2021/03/08 12:26:19;;;;;;;8.30;7.53;;;8.20;97.60;;;;;;6089200;23;20258;-94
2021/03/08 12:28:47;;;;;;;9.93;8.30;;;8.30;96.90;;;;;;6089450;23;20014;-94
2021/03/08 12:31:17;;;;;;;14.77;8.63;;;8.20;97.00;;;;;;6090315;23;20350;-93
2021/03/08 12:33:46;;;;;;;10.73;8.35;;;8.20;97.50;;;;;;6090140;23;20093;-94
2021/03/08 12:36:13;;;;;;;8.77;7.72;;;8.30;96.30;;;;;;6089716;23;20117;-94
2021/03/08 12:38:44;;;;;;;8.77;7.88;;;8.30;96.70;;;;;;6090903;23;20022;-95
2021/03/08 12:41:12;;;;;;;11.75;7.72;;;8.30;96.60;;;;;;6089946;23;20026;-94
2021/03/08 12:43:40;;;;;;;9.15;7.95;;;8.30;96.50;;;;;;6091536;23;20021;-94
2021/03/08 12:46:07;;;;;;;10.38;8.10;;;8.40;96.50;;;;;;6090006;23;20061;-94
2021/03/08 12:48:34;;;;;;;9.10;7.50;;;8.50;96.50;;;;;;6092648;23;20014;-94
2021/03/08 12:51:02;;;;;;;9.63;8.50;;;8.60;96.20;;;;;;6099709;23;20018;-95
2021/03/08 12:53:28;;;;;;;10.18;7.78;;;8.60;96.10;;;;;;6106341;23;20049;-94
2021/03/08 12:55:56;;;;;;;10.07;7.90;;;8.60;96.40;;;;;;6096432;23;20038;-94
2021/03/08 12:58:23;;;;;;;10.63;7.95;;;8.70;96.60;;;;;;6091577;23;20046;-94
2021/03/08 13:00:50;;;;;;;10.38;8.27;;;8.70;96.60;;;;;;6090782;23;20048;-93
2021/03/08 13:03:17;;;;;;;7.95;7.15;;;8.80;96.30;;;;;;6090142;23;20022;-94
2021/03/08 13:05:44;;;;;;;10.35;8.77;;;8.80;96.20;;;;;;6090173;23;20098;-94
2021/03/08 13:08:11;;;;;;;9.23;8.25;;;8.90;96.20;;;;;;6090017;23;20022;-94
2021/03/08 13:10:38;;;;;;;10.57;8.05;;;9.00;96.20;;;;;;6091067;23;20417;-94
2021/03/08 13:13:05;;;;;;;11.20;8.13;;;9.00;96.10;;;;;;6092627;23;20148;-95
2021/03/08 13:15:32;;;;;;;16.70;11.82;;;9.00;95.90;;;;;;6092009;23;20025;-95
2021/03/08 13:17:59;;;;;;;10.48;8.93;;;9.10;96.30;;;;;;6115513;22;20022;-95
2021/03/08 13:20:26;;;;;;;25.85;16.63;;;9.20;96.20;;;;;;6088445;23;20341;-94
2021/03/08 13:22:53;;;;;;;18.48;12.95;;;9.20;96.30;;;;;;6089714;23;20065;-94
2021/03/08 13:25:21;;;;;;;18.58;14.40;;;9.20;96.20;;;;;;6088679;23;20093;-94
2021/03/08 13:27:47;;;;;;;12.50;8.30;;;9.20;96.10;;;;;;6089783;23;20026;-94
2021/03/08 13:30:15;;;;;;;14.43;11.57;;;8.90;95.70;;;;;;6089077;23;20030;-94
2021/03/08 13:32:41;;;;;;;36.85;23.58;;;8.70;95.80;;;;;;6088894;23;20445;-94